sensor_id;sensor_type;location;lat;lon;timestamp;P1;durP1;ratioP1;P2;durP2;ratioP2
3503;SDS011;1766;53.490;10.174;2023-03-31T00:00:13;19.80;;;2.97;;
3503;SDS011;1766;53.490;10.174;2023-03-31T00:02:15;10.57;;;2.40;;
3503;SDS011;1766;53.490;10.174;2023-03-31T00:04:23;16.33;;;2.67;;
3503;SDS011;1766;53.490;10.174;2023-03-31T00:06:26;12.03;;;3.23;;
3503;SDS011;1766;53.490;10.174;2023-03-31T00:08:29;16.80;;;3.47;;
3503;SDS011;1766;53.490;10.174;2023-03-31T00:10:34;13.60;;;2.70;;
3503;SDS011;1766;53.490;10.174;2023-03-31T00:12:36;14.60;;;3.20;;
3503;SDS011;1766;53.490;10.174;2023-03-31T00:14:38;14.70;;;3.13;;
3503;SDS011;1766;53.490;10.174;2023-03-31T00:16:40;12.50;;;2.63;;
3503;SDS011;1766;53.490;10.174;2023-03-31T00:18:42;12.77;;;2.73;;
3503;SDS011;1766;53.490;10.174;2023-03-31T00:20:47;12.53;;;2.87;;
3503;SDS011;1766;53.490;10.174;2023-03-31T00:22:51;17.00;;;2.93;;
3503;SDS011;1766;53.490;10.174;2023-03-31T00:24:53;17.50;;;3.07;;
3503;SDS011;1766;53.490;10.174;2023-03-31T00:26:55;16.80;;;2.83;;
3503;SDS011;1766;53.490;10.174;2023-03-31T00:28:57;11.50;;;3.13;;
3503;SDS011;1766;53.490;10.174;2023-03-31T00:31:00;12.50;;;2.93;;
3503;SDS011;1766;53.490;10.174;2023-03-31T00:33:02;15.13;;;2.67;;
3503;SDS011;1766;53.490;10.174;2023-03-31T00:35:04;14.90;;;2.87;;
3503;SDS011;1766;53.490;10.174;2023-03-31T00:37:09;17.00;;;3.10;;
3503;SDS011;1766;53.490;10.174;2023-03-31T00:39:15;12.37;;;2.90;;
3503;SDS011;1766;53.490;10.174;2023-03-31T00:41:19;12.80;;;2.67;;
3503;SDS011;1766;53.490;10.174;2023-03-31T00:43:29;11.10;;;2.17;;
3503;SDS011;1766;53.490;10.174;2023-03-31T00:45:33;17.07;;;2.83;;
3503;SDS011;1766;53.490;10.174;2023-03-31T00:47:35;13.47;;;2.67;;
3503;SDS011;1766;53.490;10.174;2023-03-31T00:49:38;15.53;;;3.07;;
3503;SDS011;1766;53.490;10.174;2023-03-31T00:51:44;12.50;;;2.60;;
3503;SDS011;1766;53.490;10.174;2023-03-31T00:53:49;16.80;;;2.60;;
3503;SDS011;1766;53.490;10.174;2023-03-31T00:55:58;16.27;;;2.53;;
3503;SDS011;1766;53.490;10.174;2023-03-31T00:58:06;12.53;;;2.13;;
3503;SDS011;1766;53.490;10.174;2023-03-31T01:00:13;14.90;;;2.97;;
3503;SDS011;1766;53.490;10.174;2023-03-31T01:02:17;13.13;;;2.20;;
3503;SDS011;1766;53.490;10.174;2023-03-31T01:04:19;15.33;;;2.67;;
3503;SDS011;1766;53.490;10.174;2023-03-31T01:06:22;15.80;;;2.73;;
3503;SDS011;1766;53.490;10.174;2023-03-31T01:08:25;13.47;;;3.00;;
3503;SDS011;1766;53.490;10.174;2023-03-31T01:10:29;13.13;;;2.20;;
3503;SDS011;1766;53.490;10.174;2023-03-31T01:12:38;13.27;;;2.60;;
3503;SDS011;1766;53.490;10.174;2023-03-31T01:14:43;11.13;;;2.77;;
3503;SDS011;1766;53.490;10.174;2023-03-31T01:16:48;12.47;;;2.47;;
3503;SDS011;1766;53.490;10.174;2023-03-31T01:18:52;16.83;;;2.53;;
3503;SDS011;1766;53.490;10.174;2023-03-31T01:21:05;14.70;;;2.70;;
3503;SDS011;1766;53.490;10.174;2023-03-31T01:23:40;10.67;;;2.47;;
3503;SDS011;1766;53.490;10.174;2023-03-31T01:26:16;12.23;;;2.03;;
3503;SDS011;1766;53.490;10.174;2023-03-31T01:28:42;16.30;;;3.10;;
3503;SDS011;1766;53.490;10.174;2023-03-31T01:33:28;12.93;;;2.53;;
3503;SDS011;1766;53.490;10.174;2023-03-31T01:36:05;13.80;;;2.73;;
3503;SDS011;1766;53.490;10.174;2023-03-31T01:38:30;17.80;;;2.60;;
3503;SDS011;1766;53.490;10.174;2023-03-31T01:40:57;17.20;;;3.30;;
3503;SDS011;1766;53.490;10.174;2023-03-31T01:43:21;17.97;;;2.93;;
3503;SDS011;1766;53.490;10.174;2023-03-31T01:45:30;15.10;;;3.00;;
3503;SDS011;1766;53.490;10.174;2023-03-31T01:47:45;11.53;;;2.87;;
3503;SDS011;1766;53.490;10.174;2023-03-31T01:49:54;13.90;;;3.10;;
3503;SDS011;1766;53.490;10.174;2023-03-31T01:52:02;11.27;;;2.97;;
3503;SDS011;1766;53.490;10.174;2023-03-31T01:54:11;12.70;;;3.70;;
3503;SDS011;1766;53.490;10.174;2023-03-31T01:56:21;11.00;;;3.33;;
3503;SDS011;1766;53.490;10.174;2023-03-31T01:58:31;17.80;;;3.90;;
3503;SDS011;1766;53.490;10.174;2023-03-31T02:00:38;12.60;;;3.50;;
3503;SDS011;1766;53.490;10.174;2023-03-31T02:02:47;21.57;;;4.30;;
3503;SDS011;1766;53.490;10.174;2023-03-31T02:04:58;15.20;;;4.37;;
3503;SDS011;1766;53.490;10.174;2023-03-31T02:07:06;13.73;;;3.90;;
3503;SDS011;1766;53.490;10.174;2023-03-31T02:09:17;16.13;;;3.83;;
3503;SDS011;1766;53.490;10.174;2023-03-31T02:11:23;17.43;;;3.87;;
3503;SDS011;1766;53.490;10.174;2023-03-31T02:13:28;10.37;;;4.07;;
3503;SDS011;1766;53.490;10.174;2023-03-31T02:15:33;12.40;;;4.53;;
3503;SDS011;1766;53.490;10.174;2023-03-31T02:17:38;14.83;;;4.60;;
3503;SDS011;1766;53.490;10.174;2023-03-31T02:19:45;14.83;;;4.53;;
3503;SDS011;1766;53.490;10.174;2023-03-31T02:21:51;14.50;;;4.50;;
3503;SDS011;1766;53.490;10.174;2023-03-31T02:23:54;14.30;;;4.43;;
3503;SDS011;1766;53.490;10.174;2023-03-31T02:26:00;14.83;;;4.83;;
3503;SDS011;1766;53.490;10.174;2023-03-31T02:28:07;14.47;;;4.73;;
3503;SDS011;1766;53.490;10.174;2023-03-31T02:30:12;15.83;;;5.30;;
3503;SDS011;1766;53.490;10.174;2023-03-31T02:32:16;13.67;;;4.73;;
3503;SDS011;1766;53.490;10.174;2023-03-31T02:34:24;13.23;;;5.17;;
3503;SDS011;1766;53.490;10.174;2023-03-31T02:36:26;13.83;;;4.70;;
3503;SDS011;1766;53.490;10.174;2023-03-31T02:38:29;17.93;;;5.03;;
3503;SDS011;1766;53.490;10.174;2023-03-31T02:40:36;23.07;;;5.43;;
3503;SDS011;1766;53.490;10.174;2023-03-31T02:42:38;14.70;;;5.23;;
3503;SDS011;1766;53.490;10.174;2023-03-31T02:44:42;16.73;;;4.93;;
3503;SDS011;1766;53.490;10.174;2023-03-31T02:46:44;17.80;;;5.23;;
3503;SDS011;1766;53.490;10.174;2023-03-31T02:48:47;13.00;;;5.67;;
3503;SDS011;1766;53.490;10.174;2023-03-31T02:50:57;15.27;;;4.97;;
3503;SDS011;1766;53.490;10.174;2023-03-31T02:53:18;16.47;;;5.03;;
3503;SDS011;1766;53.490;10.174;2023-03-31T02:55:33;16.60;;;5.90;;
3503;SDS011;1766;53.490;10.174;2023-03-31T02:58:00;14.73;;;5.23;;
3503;SDS011;1766;53.490;10.174;2023-03-31T03:00:27;13.73;;;5.07;;
3503;SDS011;1766;53.490;10.174;2023-03-31T03:02:48;15.40;;;5.47;;
3503;SDS011;1766;53.490;10.174;2023-03-31T03:07:30;11.77;;;5.13;;
3503;SDS011;1766;53.490;10.174;2023-03-31T03:09:39;18.00;;;5.20;;
3503;SDS011;1766;53.490;10.174;2023-03-31T03:11:54;16.20;;;5.87;;
3503;SDS011;1766;53.490;10.174;2023-03-31T03:14:09;22.40;;;5.63;;
3503;SDS011;1766;53.490;10.174;2023-03-31T03:16:25;18.90;;;5.70;;
3503;SDS011;1766;53.490;10.174;2023-03-31T03:18:32;17.13;;;5.67;;
3503;SDS011;1766;53.490;10.174;2023-03-31T03:20:35;16.97;;;6.00;;
3503;SDS011;1766;53.490;10.174;2023-03-31T03:22:38;10.50;;;5.93;;
3503;SDS011;1766;53.490;10.174;2023-03-31T03:24:40;16.20;;;6.93;;
3503;SDS011;1766;53.490;10.174;2023-03-31T03:26:42;21.30;;;9.30;;
3503;SDS011;1766;53.490;10.174;2023-03-31T03:28:44;19.10;;;7.87;;
3503;SDS011;1766;53.490;10.174;2023-03-31T03:30:47;21.27;;;6.50;;
3503;SDS011;1766;53.490;10.174;2023-03-31T03:32:50;22.40;;;7.00;;
3503;SDS011;1766;53.490;10.174;2023-03-31T03:34:53;21.83;;;6.67;;
3503;SDS011;1766;53.490;10.174;2023-03-31T03:36:55;18.97;;;6.10;;
3503;SDS011;1766;53.490;10.174;2023-03-31T03:38:57;14.10;;;6.13;;
3503;SDS011;1766;53.490;10.174;2023-03-31T03:40:59;15.33;;;6.10;;
3503;SDS011;1766;53.490;10.174;2023-03-31T03:43:00;22.70;;;6.70;;
3503;SDS011;1766;53.490;10.174;2023-03-31T03:45:02;14.30;;;5.70;;
3503;SDS011;1766;53.490;10.174;2023-03-31T03:47:05;21.70;;;7.30;;
3503;SDS011;1766;53.490;10.174;2023-03-31T03:49:08;18.37;;;8.27;;
3503;SDS011;1766;53.490;10.174;2023-03-31T03:51:10;20.60;;;8.63;;
3503;SDS011;1766;53.490;10.174;2023-03-31T03:53:12;22.57;;;8.10;;
3503;SDS011;1766;53.490;10.174;2023-03-31T03:55:14;16.27;;;6.90;;
3503;SDS011;1766;53.490;10.174;2023-03-31T03:57:20;49.53;;;27.17;;
3503;SDS011;1766;53.490;10.174;2023-03-31T03:59:22;34.73;;;16.43;;
3503;SDS011;1766;53.490;10.174;2023-03-31T04:01:24;23.27;;;11.60;;
3503;SDS011;1766;53.490;10.174;2023-03-31T04:03:26;16.90;;;7.07;;
3503;SDS011;1766;53.490;10.174;2023-03-31T04:05:29;18.10;;;7.03;;
3503;SDS011;1766;53.490;10.174;2023-03-31T04:07:31;18.27;;;6.27;;
3503;SDS011;1766;53.490;10.174;2023-03-31T04:09:33;24.07;;;7.50;;
3503;SDS011;1766;53.490;10.174;2023-03-31T04:11:34;19.60;;;6.63;;
3503;SDS011;1766;53.490;10.174;2023-03-31T04:13:36;17.53;;;6.47;;
3503;SDS011;1766;53.490;10.174;2023-03-31T04:15:38;21.70;;;7.13;;
3503;SDS011;1766;53.490;10.174;2023-03-31T04:17:40;21.00;;;7.20;;
3503;SDS011;1766;53.490;10.174;2023-03-31T04:19:47;20.30;;;7.00;;
3503;SDS011;1766;53.490;10.174;2023-03-31T04:21:52;17.50;;;7.13;;
3503;SDS011;1766;53.490;10.174;2023-03-31T04:23:57;34.43;;;17.73;;
3503;SDS011;1766;53.490;10.174;2023-03-31T04:26:00;61.27;;;31.07;;
3503;SDS011;1766;53.490;10.174;2023-03-31T04:28:03;15.33;;;7.73;;
3503;SDS011;1766;53.490;10.174;2023-03-31T04:30:06;19.63;;;7.73;;
3503;SDS011;1766;53.490;10.174;2023-03-31T04:32:09;22.17;;;8.07;;
3503;SDS011;1766;53.490;10.174;2023-03-31T04:34:14;19.63;;;7.27;;
3503;SDS011;1766;53.490;10.174;2023-03-31T04:36:16;24.53;;;8.90;;
3503;SDS011;1766;53.490;10.174;2023-03-31T04:38:19;19.23;;;8.07;;
3503;SDS011;1766;53.490;10.174;2023-03-31T04:40:23;27.07;;;8.47;;
3503;SDS011;1766;53.490;10.174;2023-03-31T04:42:25;22.63;;;8.03;;
3503;SDS011;1766;53.490;10.174;2023-03-31T04:44:27;16.90;;;8.83;;
3503;SDS011;1766;53.490;10.174;2023-03-31T04:46:30;25.50;;;9.43;;
3503;SDS011;1766;53.490;10.174;2023-03-31T04:48:32;23.27;;;8.40;;
3503;SDS011;1766;53.490;10.174;2023-03-31T04:50:35;25.03;;;9.97;;
3503;SDS011;1766;53.490;10.174;2023-03-31T04:52:37;23.60;;;9.23;;
3503;SDS011;1766;53.490;10.174;2023-03-31T04:54:41;27.37;;;10.77;;
3503;SDS011;1766;53.490;10.174;2023-03-31T04:56:42;26.50;;;8.87;;
3503;SDS011;1766;53.490;10.174;2023-03-31T04:58:44;16.80;;;8.13;;
3503;SDS011;1766;53.490;10.174;2023-03-31T05:00:46;20.40;;;8.70;;
3503;SDS011;1766;53.490;10.174;2023-03-31T05:02:48;15.27;;;8.00;;
3503;SDS011;1766;53.490;10.174;2023-03-31T05:04:50;22.97;;;8.07;;
3503;SDS011;1766;53.490;10.174;2023-03-31T05:06:52;16.23;;;7.97;;
3503;SDS011;1766;53.490;10.174;2023-03-31T05:08:55;16.73;;;7.53;;
3503;SDS011;1766;53.490;10.174;2023-03-31T05:10:58;21.23;;;9.13;;
3503;SDS011;1766;53.490;10.174;2023-03-31T05:12:59;18.23;;;7.87;;
3503;SDS011;1766;53.490;10.174;2023-03-31T05:15:02;17.37;;;7.67;;
3503;SDS011;1766;53.490;10.174;2023-03-31T05:17:05;19.00;;;7.23;;
3503;SDS011;1766;53.490;10.174;2023-03-31T05:19:07;17.73;;;7.23;;
3503;SDS011;1766;53.490;10.174;2023-03-31T05:21:09;74.00;;;35.87;;
3503;SDS011;1766;53.490;10.174;2023-03-31T05:23:13;29.27;;;14.60;;
3503;SDS011;1766;53.490;10.174;2023-03-31T05:25:15;16.57;;;7.60;;
3503;SDS011;1766;53.490;10.174;2023-03-31T05:27:19;17.27;;;6.97;;
3503;SDS011;1766;53.490;10.174;2023-03-31T05:29:22;17.93;;;6.53;;
3503;SDS011;1766;53.490;10.174;2023-03-31T05:31:24;16.47;;;6.73;;
3503;SDS011;1766;53.490;10.174;2023-03-31T05:33:26;11.97;;;6.53;;
3503;SDS011;1766;53.490;10.174;2023-03-31T05:35:29;13.20;;;6.17;;
3503;SDS011;1766;53.490;10.174;2023-03-31T05:37:30;15.53;;;6.93;;
3503;SDS011;1766;53.490;10.174;2023-03-31T05:39:32;17.53;;;8.23;;
3503;SDS011;1766;53.490;10.174;2023-03-31T05:41:34;18.47;;;7.93;;
3503;SDS011;1766;53.490;10.174;2023-03-31T05:43:37;14.77;;;6.77;;
3503;SDS011;1766;53.490;10.174;2023-03-31T05:45:39;18.37;;;6.90;;
3503;SDS011;1766;53.490;10.174;2023-03-31T05:47:41;19.07;;;6.53;;
3503;SDS011;1766;53.490;10.174;2023-03-31T05:49:43;18.07;;;6.70;;
3503;SDS011;1766;53.490;10.174;2023-03-31T05:51:45;16.47;;;6.07;;
3503;SDS011;1766;53.490;10.174;2023-03-31T05:53:47;15.87;;;6.73;;
3503;SDS011;1766;53.490;10.174;2023-03-31T05:55:48;16.43;;;7.27;;
3503;SDS011;1766;53.490;10.174;2023-03-31T05:57:50;17.73;;;6.57;;
3503;SDS011;1766;53.490;10.174;2023-03-31T05:59:54;16.30;;;6.20;;
3503;SDS011;1766;53.490;10.174;2023-03-31T06:01:56;15.93;;;5.83;;
3503;SDS011;1766;53.490;10.174;2023-03-31T06:03:58;17.63;;;6.10;;
3503;SDS011;1766;53.490;10.174;2023-03-31T06:06:00;13.07;;;5.53;;
3503;SDS011;1766;53.490;10.174;2023-03-31T06:08:02;17.37;;;6.87;;
3503;SDS011;1766;53.490;10.174;2023-03-31T06:10:04;14.87;;;6.57;;
3503;SDS011;1766;53.490;10.174;2023-03-31T06:12:09;14.83;;;6.80;;
3503;SDS011;1766;53.490;10.174;2023-03-31T06:14:11;18.40;;;6.07;;
3503;SDS011;1766;53.490;10.174;2023-03-31T06:16:15;17.43;;;6.07;;
3503;SDS011;1766;53.490;10.174;2023-03-31T06:18:17;15.67;;;5.80;;
3503;SDS011;1766;53.490;10.174;2023-03-31T06:20:19;13.37;;;5.17;;
3503;SDS011;1766;53.490;10.174;2023-03-31T06:22:21;17.10;;;6.67;;
3503;SDS011;1766;53.490;10.174;2023-03-31T06:24:23;13.20;;;5.10;;
3503;SDS011;1766;53.490;10.174;2023-03-31T06:26:25;12.30;;;5.03;;
3503;SDS011;1766;53.490;10.174;2023-03-31T06:28:27;10.57;;;5.27;;
3503;SDS011;1766;53.490;10.174;2023-03-31T06:30:30;12.57;;;5.40;;
3503;SDS011;1766;53.490;10.174;2023-03-31T06:32:33;12.73;;;5.70;;
3503;SDS011;1766;53.490;10.174;2023-03-31T06:34:35;13.43;;;5.87;;
3503;SDS011;1766;53.490;10.174;2023-03-31T06:36:37;19.03;;;5.90;;
3503;SDS011;1766;53.490;10.174;2023-03-31T06:38:41;14.20;;;5.60;;
3503;SDS011;1766;53.490;10.174;2023-03-31T06:40:44;9.43;;;4.73;;
3503;SDS011;1766;53.490;10.174;2023-03-31T06:42:48;13.83;;;5.73;;
3503;SDS011;1766;53.490;10.174;2023-03-31T06:44:50;13.30;;;5.30;;
3503;SDS011;1766;53.490;10.174;2023-03-31T06:46:51;12.50;;;5.13;;
3503;SDS011;1766;53.490;10.174;2023-03-31T06:48:55;12.30;;;5.10;;
3503;SDS011;1766;53.490;10.174;2023-03-31T06:50:58;15.87;;;5.10;;
3503;SDS011;1766;53.490;10.174;2023-03-31T06:53:01;9.63;;;4.90;;
3503;SDS011;1766;53.490;10.174;2023-03-31T06:55:03;13.80;;;4.83;;
3503;SDS011;1766;53.490;10.174;2023-03-31T06:57:06;12.50;;;4.70;;
3503;SDS011;1766;53.490;10.174;2023-03-31T06:59:08;12.23;;;4.47;;
3503;SDS011;1766;53.490;10.174;2023-03-31T07:01:09;11.07;;;4.60;;
3503;SDS011;1766;53.490;10.174;2023-03-31T07:03:11;11.53;;;4.50;;
3503;SDS011;1766;53.490;10.174;2023-03-31T07:05:17;9.63;;;4.77;;
3503;SDS011;1766;53.490;10.174;2023-03-31T07:07:19;12.57;;;4.80;;
3503;SDS011;1766;53.490;10.174;2023-03-31T07:09:20;8.67;;;3.93;;
3503;SDS011;1766;53.490;10.174;2023-03-31T07:11:23;11.97;;;4.70;;
3503;SDS011;1766;53.490;10.174;2023-03-31T07:13:25;13.23;;;4.53;;
3503;SDS011;1766;53.490;10.174;2023-03-31T07:15:27;8.53;;;4.30;;
3503;SDS011;1766;53.490;10.174;2023-03-31T07:17:29;8.07;;;3.70;;
3503;SDS011;1766;53.490;10.174;2023-03-31T07:19:31;11.43;;;4.10;;
3503;SDS011;1766;53.490;10.174;2023-03-31T07:21:38;7.53;;;3.20;;
3503;SDS011;1766;53.490;10.174;2023-03-31T07:23:39;12.33;;;4.03;;
3503;SDS011;1766;53.490;10.174;2023-03-31T07:25:41;11.23;;;3.63;;
3503;SDS011;1766;53.490;10.174;2023-03-31T07:27:44;5.60;;;2.90;;
3503;SDS011;1766;53.490;10.174;2023-03-31T07:29:46;10.63;;;3.73;;
3503;SDS011;1766;53.490;10.174;2023-03-31T07:31:48;12.10;;;3.27;;
3503;SDS011;1766;53.490;10.174;2023-03-31T07:33:51;7.90;;;3.07;;
3503;SDS011;1766;53.490;10.174;2023-03-31T07:35:53;8.13;;;3.33;;
3503;SDS011;1766;53.490;10.174;2023-03-31T07:37:56;6.30;;;3.33;;
3503;SDS011;1766;53.490;10.174;2023-03-31T07:39:58;10.20;;;3.40;;
3503;SDS011;1766;53.490;10.174;2023-03-31T07:42:00;9.60;;;3.30;;
3503;SDS011;1766;53.490;10.174;2023-03-31T07:44:02;11.90;;;3.57;;
3503;SDS011;1766;53.490;10.174;2023-03-31T07:46:04;8.87;;;3.40;;
3503;SDS011;1766;53.490;10.174;2023-03-31T07:48:07;8.97;;;2.70;;
3503;SDS011;1766;53.490;10.174;2023-03-31T07:50:09;8.47;;;3.07;;
3503;SDS011;1766;53.490;10.174;2023-03-31T07:52:11;11.47;;;3.00;;
3503;SDS011;1766;53.490;10.174;2023-03-31T07:54:17;13.80;;;3.57;;
3503;SDS011;1766;53.490;10.174;2023-03-31T07:56:21;6.33;;;2.80;;
3503;SDS011;1766;53.490;10.174;2023-03-31T07:58:25;11.53;;;3.10;;
3503;SDS011;1766;53.490;10.174;2023-03-31T08:00:27;7.97;;;3.30;;
3503;SDS011;1766;53.490;10.174;2023-03-31T08:02:29;3.50;;;2.40;;
3503;SDS011;1766;53.490;10.174;2023-03-31T08:04:30;7.00;;;2.80;;
3503;SDS011;1766;53.490;10.174;2023-03-31T08:06:32;7.40;;;2.80;;
3503;SDS011;1766;53.490;10.174;2023-03-31T08:08:34;9.00;;;2.93;;
3503;SDS011;1766;53.490;10.174;2023-03-31T08:10:38;8.23;;;2.57;;
3503;SDS011;1766;53.490;10.174;2023-03-31T08:12:40;8.67;;;3.10;;
3503;SDS011;1766;53.490;10.174;2023-03-31T08:14:42;6.97;;;2.40;;
3503;SDS011;1766;53.490;10.174;2023-03-31T08:16:44;7.37;;;2.47;;
3503;SDS011;1766;53.490;10.174;2023-03-31T08:18:46;6.60;;;2.60;;
3503;SDS011;1766;53.490;10.174;2023-03-31T08:20:48;9.13;;;2.00;;
3503;SDS011;1766;53.490;10.174;2023-03-31T08:22:49;5.80;;;2.20;;
3503;SDS011;1766;53.490;10.174;2023-03-31T08:24:51;5.67;;;2.40;;
3503;SDS011;1766;53.490;10.174;2023-03-31T08:26:54;7.77;;;2.30;;
3503;SDS011;1766;53.490;10.174;2023-03-31T08:28:56;4.80;;;2.20;;
3503;SDS011;1766;53.490;10.174;2023-03-31T08:31:01;5.83;;;2.10;;
3503;SDS011;1766;53.490;10.174;2023-03-31T08:33:04;4.93;;;1.83;;
3503;SDS011;1766;53.490;10.174;2023-03-31T08:35:07;11.53;;;2.17;;
3503;SDS011;1766;53.490;10.174;2023-03-31T08:37:09;4.37;;;1.87;;
3503;SDS011;1766;53.490;10.174;2023-03-31T08:39:11;5.67;;;2.13;;
3503;SDS011;1766;53.490;10.174;2023-03-31T08:41:19;8.57;;;2.83;;
3503;SDS011;1766;53.490;10.174;2023-03-31T08:43:39;2.23;;;1.30;;
3503;SDS011;1766;53.490;10.174;2023-03-31T08:45:44;7.03;;;2.67;;
3503;SDS011;1766;53.490;10.174;2023-03-31T08:47:49;2.90;;;1.67;;
3503;SDS011;1766;53.490;10.174;2023-03-31T08:49:54;6.33;;;1.80;;
3503;SDS011;1766;53.490;10.174;2023-03-31T08:52:01;5.90;;;1.50;;
3503;SDS011;1766;53.490;10.174;2023-03-31T08:54:06;5.90;;;1.70;;
3503;SDS011;1766;53.490;10.174;2023-03-31T08:56:17;5.23;;;1.50;;
3503;SDS011;1766;53.490;10.174;2023-03-31T08:58:26;5.27;;;2.37;;
3503;SDS011;1766;53.490;10.174;2023-03-31T09:00:39;8.57;;;2.40;;
3503;SDS011;1766;53.490;10.174;2023-03-31T09:02:48;5.33;;;2.17;;
3503;SDS011;1766;53.490;10.174;2023-03-31T09:05:07;6.67;;;1.77;;
3503;SDS011;1766;53.490;10.174;2023-03-31T09:07:26;7.67;;;2.00;;
3503;SDS011;1766;53.490;10.174;2023-03-31T09:09:42;6.40;;;1.90;;
3503;SDS011;1766;53.490;10.174;2023-03-31T09:11:51;6.10;;;1.83;;
3503;SDS011;1766;53.490;10.174;2023-03-31T09:14:03;11.60;;;2.30;;
3503;SDS011;1766;53.490;10.174;2023-03-31T09:16:18;7.50;;;2.47;;
3503;SDS011;1766;53.490;10.174;2023-03-31T09:18:28;6.87;;;2.17;;
3503;SDS011;1766;53.490;10.174;2023-03-31T09:20:35;7.17;;;2.53;;
3503;SDS011;1766;53.490;10.174;2023-03-31T09:22:40;3.90;;;2.10;;
3503;SDS011;1766;53.490;10.174;2023-03-31T09:24:48;4.73;;;2.27;;
3503;SDS011;1766;53.490;10.174;2023-03-31T09:26:57;8.63;;;2.30;;
3503;SDS011;1766;53.490;10.174;2023-03-31T09:29:03;12.93;;;2.50;;
3503;SDS011;1766;53.490;10.174;2023-03-31T09:31:15;8.43;;;2.30;;
3503;SDS011;1766;53.490;10.174;2023-03-31T09:33:22;5.87;;;2.20;;
3503;SDS011;1766;53.490;10.174;2023-03-31T09:35:31;6.87;;;2.13;;
3503;SDS011;1766;53.490;10.174;2023-03-31T09:37:33;6.40;;;2.13;;
3503;SDS011;1766;53.490;10.174;2023-03-31T09:39:35;7.10;;;2.53;;
3503;SDS011;1766;53.490;10.174;2023-03-31T09:41:37;5.60;;;2.10;;
3503;SDS011;1766;53.490;10.174;2023-03-31T09:43:45;6.03;;;2.67;;
3503;SDS011;1766;53.490;10.174;2023-03-31T09:45:48;8.67;;;2.07;;
3503;SDS011;1766;53.490;10.174;2023-03-31T09:47:52;6.53;;;1.87;;
3503;SDS011;1766;53.490;10.174;2023-03-31T09:49:56;9.03;;;2.20;;
3503;SDS011;1766;53.490;10.174;2023-03-31T09:52:00;10.13;;;2.57;;
3503;SDS011;1766;53.490;10.174;2023-03-31T09:54:06;5.63;;;2.20;;
3503;SDS011;1766;53.490;10.174;2023-03-31T09:56:30;4.33;;;2.17;;
3503;SDS011;1766;53.490;10.174;2023-03-31T09:58:39;6.33;;;1.90;;
3503;SDS011;1766;53.490;10.174;2023-03-31T10:00:42;8.63;;;2.43;;
3503;SDS011;1766;53.490;10.174;2023-03-31T10:03:00;10.13;;;1.90;;
3503;SDS011;1766;53.490;10.174;2023-03-31T10:05:06;9.27;;;2.00;;
3503;SDS011;1766;53.490;10.174;2023-03-31T10:07:26;3.53;;;1.97;;
3503;SDS011;1766;53.490;10.174;2023-03-31T10:09:28;3.70;;;1.60;;
3503;SDS011;1766;53.490;10.174;2023-03-31T10:11:33;5.27;;;1.70;;
3503;SDS011;1766;53.490;10.174;2023-03-31T10:13:36;4.57;;;1.50;;
3503;SDS011;1766;53.490;10.174;2023-03-31T10:15:46;4.73;;;1.67;;
3503;SDS011;1766;53.490;10.174;2023-03-31T10:17:53;5.97;;;2.23;;
3503;SDS011;1766;53.490;10.174;2023-03-31T10:20:04;5.23;;;2.00;;
3503;SDS011;1766;53.490;10.174;2023-03-31T10:22:26;3.50;;;1.77;;
3503;SDS011;1766;53.490;10.174;2023-03-31T10:24:35;4.20;;;1.97;;
3503;SDS011;1766;53.490;10.174;2023-03-31T10:26:38;4.43;;;1.77;;
3503;SDS011;1766;53.490;10.174;2023-03-31T10:28:40;3.13;;;1.50;;
3503;SDS011;1766;53.490;10.174;2023-03-31T10:30:45;3.20;;;1.60;;
3503;SDS011;1766;53.490;10.174;2023-03-31T10:32:49;6.97;;;2.50;;
3503;SDS011;1766;53.490;10.174;2023-03-31T10:34:53;3.77;;;1.50;;
3503;SDS011;1766;53.490;10.174;2023-03-31T10:36:55;3.80;;;1.33;;
3503;SDS011;1766;53.490;10.174;2023-03-31T10:38:57;3.03;;;1.33;;
3503;SDS011;1766;53.490;10.174;2023-03-31T10:40:59;5.83;;;1.53;;
3503;SDS011;1766;53.490;10.174;2023-03-31T10:43:03;2.63;;;1.30;;
3503;SDS011;1766;53.490;10.174;2023-03-31T10:45:23;2.27;;;1.20;;
3503;SDS011;1766;53.490;10.174;2023-03-31T10:47:27;7.13;;;1.40;;
3503;SDS011;1766;53.490;10.174;2023-03-31T10:49:36;1.83;;;1.20;;
3503;SDS011;1766;53.490;10.174;2023-03-31T10:51:48;3.53;;;1.60;;
3503;SDS011;1766;53.490;10.174;2023-03-31T10:53:52;6.83;;;1.20;;
3503;SDS011;1766;53.490;10.174;2023-03-31T10:56:05;1.97;;;1.20;;
3503;SDS011;1766;53.490;10.174;2023-03-31T10:58:21;2.33;;;1.77;;
3503;SDS011;1766;53.490;10.174;2023-03-31T11:00:38;4.57;;;1.30;;
3503;SDS011;1766;53.490;10.174;2023-03-31T11:03:01;4.00;;;1.23;;
3503;SDS011;1766;53.490;10.174;2023-03-31T11:05:23;2.93;;;1.30;;
3503;SDS011;1766;53.490;10.174;2023-03-31T11:07:40;3.10;;;1.60;;
3503;SDS011;1766;53.490;10.174;2023-03-31T11:10:02;3.07;;;1.53;;
3503;SDS011;1766;53.490;10.174;2023-03-31T11:12:33;4.40;;;1.40;;
3503;SDS011;1766;53.490;10.174;2023-03-31T11:14:43;3.20;;;1.67;;
3503;SDS011;1766;53.490;10.174;2023-03-31T11:16:55;2.47;;;1.23;;
3503;SDS011;1766;53.490;10.174;2023-03-31T11:19:05;4.57;;;1.60;;
3503;SDS011;1766;53.490;10.174;2023-03-31T11:21:17;2.83;;;1.47;;
3503;SDS011;1766;53.490;10.174;2023-03-31T11:23:30;3.07;;;1.47;;
3503;SDS011;1766;53.490;10.174;2023-03-31T11:25:43;6.47;;;1.77;;
3503;SDS011;1766;53.490;10.174;2023-03-31T11:27:56;4.73;;;1.50;;
3503;SDS011;1766;53.490;10.174;2023-03-31T11:30:19;4.00;;;1.20;;
3503;SDS011;1766;53.490;10.174;2023-03-31T11:32:28;2.97;;;1.10;;
3503;SDS011;1766;53.490;10.174;2023-03-31T11:34:47;3.37;;;1.57;;
3503;SDS011;1766;53.490;10.174;2023-03-31T11:37:08;3.97;;;1.37;;
3503;SDS011;1766;53.490;10.174;2023-03-31T11:39:26;4.70;;;1.77;;
3503;SDS011;1766;53.490;10.174;2023-03-31T11:41:39;4.40;;;1.70;;
3503;SDS011;1766;53.490;10.174;2023-03-31T11:43:45;9.17;;;1.90;;
3503;SDS011;1766;53.490;10.174;2023-03-31T11:45:51;7.23;;;2.07;;
3503;SDS011;1766;53.490;10.174;2023-03-31T11:47:59;5.00;;;2.00;;
3503;SDS011;1766;53.490;10.174;2023-03-31T11:50:08;4.13;;;2.00;;
3503;SDS011;1766;53.490;10.174;2023-03-31T11:52:13;3.27;;;1.83;;
3503;SDS011;1766;53.490;10.174;2023-03-31T11:54:19;3.83;;;1.87;;
3503;SDS011;1766;53.490;10.174;2023-03-31T11:56:30;3.90;;;1.83;;
3503;SDS011;1766;53.490;10.174;2023-03-31T11:58:37;3.83;;;1.97;;
3503;SDS011;1766;53.490;10.174;2023-03-31T12:00:46;7.67;;;1.97;;
3503;SDS011;1766;53.490;10.174;2023-03-31T12:02:53;4.33;;;1.90;;
3503;SDS011;1766;53.490;10.174;2023-03-31T12:05:03;3.70;;;1.60;;
3503;SDS011;1766;53.490;10.174;2023-03-31T12:07:11;5.10;;;2.67;;
3503;SDS011;1766;53.490;10.174;2023-03-31T12:09:24;4.30;;;1.50;;
3503;SDS011;1766;53.490;10.174;2023-03-31T12:11:34;2.47;;;1.70;;
3503;SDS011;1766;53.490;10.174;2023-03-31T12:13:43;3.00;;;1.60;;
3503;SDS011;1766;53.490;10.174;2023-03-31T12:15:53;4.50;;;1.63;;
3503;SDS011;1766;53.490;10.174;2023-03-31T12:18:08;4.27;;;1.53;;
3503;SDS011;1766;53.490;10.174;2023-03-31T12:20:17;1.93;;;1.30;;
3503;SDS011;1766;53.490;10.174;2023-03-31T12:22:27;3.47;;;1.40;;
3503;SDS011;1766;53.490;10.174;2023-03-31T12:24:34;3.93;;;1.37;;
3503;SDS011;1766;53.490;10.174;2023-03-31T12:26:38;4.60;;;1.57;;
3503;SDS011;1766;53.490;10.174;2023-03-31T12:28:49;3.90;;;1.43;;
3503;SDS011;1766;53.490;10.174;2023-03-31T12:30:56;2.13;;;1.43;;
3503;SDS011;1766;53.490;10.174;2023-03-31T12:33:01;2.43;;;1.20;;
3503;SDS011;1766;53.490;10.174;2023-03-31T12:35:09;2.93;;;1.70;;
3503;SDS011;1766;53.490;10.174;2023-03-31T12:37:26;4.27;;;1.80;;
3503;SDS011;1766;53.490;10.174;2023-03-31T12:39:58;3.53;;;1.53;;
3503;SDS011;1766;53.490;10.174;2023-03-31T12:42:29;2.60;;;1.50;;
3503;SDS011;1766;53.490;10.174;2023-03-31T12:44:51;3.07;;;1.90;;
3503;SDS011;1766;53.490;10.174;2023-03-31T12:47:07;2.37;;;1.73;;
3503;SDS011;1766;53.490;10.174;2023-03-31T12:49:29;6.63;;;2.43;;
3503;SDS011;1766;53.490;10.174;2023-03-31T12:51:46;3.30;;;2.20;;